createdAt,value
2018-08-03T00:00:09.080Z,0.00
2018-08-03T00:01:09.034Z,0.00
2018-08-03T00:02:08.994Z,0.00
2018-08-03T00:03:08.954Z,0.00
2018-08-03T00:04:08.943Z,0.00
2018-08-03T00:05:08.866Z,0.00
2018-08-03T00:06:08.831Z,0.00
2018-08-03T00:07:08.817Z,0.00
2018-08-03T00:08:08.739Z,0.00
2018-08-03T00:09:08.721Z,0.00
2018-08-03T00:10:08.658Z,0.00
2018-08-03T00:11:08.615Z,0.00
2018-08-03T00:12:08.571Z,0.00
2018-08-03T00:13:08.561Z,0.00
2018-08-03T00:14:08.486Z,0.00
2018-08-03T00:15:08.477Z,0.00
2018-08-03T00:16:08.402Z,0.00
2018-08-03T00:17:08.356Z,0.00
2018-08-03T00:18:08.314Z,0.00
2018-08-03T00:19:08.307Z,0.00
2018-08-03T00:20:08.265Z,0.00
2018-08-03T00:21:08.227Z,0.00
2018-08-03T00:22:08.144Z,0.00
2018-08-03T00:23:08.103Z,0.00
2018-08-03T00:24:08.059Z,0.00
2018-08-03T00:25:08.014Z,0.00
2018-08-03T00:26:08.013Z,0.00
2018-08-03T00:27:07.932Z,0.00
2018-08-03T00:28:07.889Z,0.00
2018-08-03T00:29:07.853Z,0.00
2018-08-03T00:30:07.806Z,0.00
2018-08-03T00:31:07.803Z,0.00
2018-08-03T00:32:07.717Z,0.00
2018-08-03T00:33:07.677Z,0.00
2018-08-03T00:34:07.634Z,0.00
2018-08-03T00:35:07.592Z,0.00
2018-08-03T00:36:07.583Z,0.00
2018-08-03T00:37:07.506Z,0.00
2018-08-03T00:38:07.461Z,0.00
2018-08-03T00:39:07.419Z,0.00
2018-08-03T00:40:07.408Z,0.00
2018-08-03T00:41:07.334Z,0.00
2018-08-03T00:42:07.295Z,0.00
2018-08-03T00:43:07.245Z,0.00
2018-08-03T00:44:07.242Z,0.00
2018-08-03T00:45:07.165Z,0.00
2018-08-03T00:46:07.118Z,0.00
2018-08-03T00:47:07.110Z,0.00
2018-08-03T00:48:07.036Z,0.00
2018-08-03T00:49:06.990Z,0.00
2018-08-03T00:50:06.948Z,0.00
2018-08-03T00:51:06.903Z,0.00
2018-08-03T00:52:06.902Z,0.00
2018-08-03T00:53:06.821Z,0.00
2018-08-03T00:54:06.778Z,0.00
2018-08-03T00:55:06.733Z,0.00
2018-08-03T00:56:06.693Z,0.00
2018-08-03T00:57:06.681Z,0.00
2018-08-03T00:58:06.602Z,0.00
2018-08-03T00:59:06.563Z,0.00
2018-08-03T01:00:06.519Z,0.00
2018-08-03T01:01:06.475Z,0.00
2018-08-03T01:02:06.463Z,0.00
2018-08-03T01:03:06.388Z,0.00
2018-08-03T01:04:06.345Z,0.00
2018-08-03T01:05:06.302Z,0.00
2018-08-03T01:06:06.297Z,0.00
2018-08-03T01:07:06.216Z,0.00
2018-08-03T01:08:06.207Z,0.00
2018-08-03T01:09:06.130Z,0.00
2018-08-03T01:10:06.088Z,0.00
2018-08-03T01:11:06.046Z,0.00
2018-08-03T01:12:06.008Z,0.00
2018-08-03T01:13:05.982Z,0.00
2018-08-03T01:14:05.922Z,0.00
2018-08-03T01:15:05.875Z,0.00
2018-08-03T01:16:05.830Z,0.00
2018-08-03T01:17:05.786Z,0.00
2018-08-03T01:18:05.776Z,0.00
2018-08-03T01:19:05.699Z,0.00
2018-08-03T01:20:05.688Z,0.00
2018-08-03T01:21:05.612Z,0.00
2018-08-03T01:22:05.569Z,0.00
2018-08-03T01:23:05.569Z,0.00
2018-08-03T01:24:05.482Z,0.00
2018-08-03T01:25:05.439Z,0.00
2018-08-03T01:26:05.397Z,0.00
2018-08-03T01:27:05.356Z,0.00
2018-08-03T01:28:05.362Z,0.00
2018-08-03T01:29:05.267Z,0.00
2018-08-03T01:30:05.227Z,0.00
2018-08-03T01:31:05.181Z,0.00
2018-08-03T01:32:05.138Z,0.00
2018-08-03T01:33:05.134Z,0.00
2018-08-03T01:34:05.053Z,0.00
2018-08-03T01:35:05.010Z,0.00
2018-08-03T01:36:04.963Z,0.00
2018-08-03T01:37:04.919Z,0.00
2018-08-03T01:38:04.912Z,0.00
2018-08-03T01:39:04.836Z,0.00
2018-08-03T01:40:04.791Z,0.00
2018-08-03T01:41:04.786Z,0.00
2018-08-03T01:42:04.705Z,0.00
2018-08-03T01:43:04.660Z,0.00
2018-08-03T01:44:04.621Z,0.00
2018-08-03T01:45:04.577Z,0.00
2018-08-03T01:46:04.564Z,0.00
2018-08-03T01:47:04.486Z,0.00
2018-08-03T01:48:04.478Z,0.00
2018-08-03T01:49:04.402Z,0.00
2018-08-03T01:50:04.358Z,0.00
2018-08-03T01:51:04.319Z,0.00
2018-08-03T01:52:04.273Z,0.00
2018-08-03T01:53:04.261Z,0.00
2018-08-03T01:54:04.187Z,0.00
2018-08-03T01:55:04.142Z,0.00
2018-08-03T01:56:04.097Z,0.00
2018-08-03T01:57:04.056Z,0.00
2018-08-03T01:58:04.042Z,0.00
2018-08-03T01:59:04.033Z,0.00
2018-08-03T02:00:03.923Z,0.00
2018-08-03T02:01:03.882Z,0.00
2018-08-03T02:02:03.841Z,0.00
2018-08-03T02:03:03.827Z,0.00
2018-08-03T02:04:03.751Z,0.00
2018-08-03T02:05:03.709Z,0.00
2018-08-03T02:06:03.694Z,0.00
2018-08-03T02:07:03.620Z,0.00
2018-08-03T02:08:03.577Z,0.00
2018-08-03T02:09:03.534Z,0.00
2018-08-03T02:10:03.486Z,0.00
2018-08-03T02:11:03.493Z,0.00
2018-08-03T02:12:03.404Z,0.00
2018-08-03T02:13:03.357Z,0.00
2018-08-03T02:14:03.317Z,0.00
2018-08-03T02:15:03.272Z,0.00
2018-08-03T02:16:03.257Z,0.00
2018-08-03T02:17:03.182Z,0.00
2018-08-03T02:18:03.145Z,0.00
2018-08-03T02:19:03.096Z,0.00
2018-08-03T02:20:03.082Z,0.00
2018-08-03T02:21:03.057Z,0.00
2018-08-03T02:22:02.967Z,0.00
2018-08-03T02:23:02.921Z,0.00
2018-08-03T02:24:02.880Z,0.00
2018-08-03T02:25:02.866Z,0.00
2018-08-03T02:26:02.791Z,0.00
2018-08-03T02:27:02.747Z,0.00
2018-08-03T02:28:02.702Z,0.00
2018-08-03T02:29:02.690Z,0.00
2018-08-03T02:30:02.624Z,0.00
2018-08-03T02:31:02.573Z,0.00
2018-08-03T02:32:02.527Z,0.00
2018-08-03T02:33:02.509Z,0.00
2018-08-03T02:34:02.484Z,0.00
2018-08-03T02:35:02.401Z,0.00
2018-08-03T02:36:02.354Z,0.00
2018-08-03T02:37:02.314Z,0.00
2018-08-03T02:38:02.268Z,0.00
2018-08-03T02:39:02.274Z,0.00
2018-08-03T02:40:02.179Z,0.00
2018-08-03T02:41:02.133Z,0.00
2018-08-03T02:42:02.092Z,0.00
2018-08-03T02:43:02.053Z,0.00
2018-08-03T02:44:02.053Z,0.00
2018-08-03T02:45:01.961Z,0.00
2018-08-03T02:46:01.915Z,0.00
2018-08-03T02:47:01.873Z,0.00
2018-08-03T02:48:01.828Z,0.00
2018-08-03T02:49:01.817Z,0.00
2018-08-03T02:50:01.757Z,0.00
2018-08-03T02:51:01.699Z,0.00
2018-08-03T02:52:01.689Z,0.00
2018-08-03T02:53:01.609Z,0.00
2018-08-03T02:54:01.566Z,0.00
2018-08-03T02:55:01.552Z,0.00
2018-08-03T02:56:01.517Z,0.00
2018-08-03T02:57:01.434Z,0.00
2018-08-03T02:58:01.422Z,0.00
2018-08-03T02:59:01.353Z,0.00
2018-08-03T03:00:01.303Z,0.00
2018-08-03T03:01:01.264Z,0.00
2018-08-03T03:02:01.212Z,0.00
2018-08-03T03:03:01.202Z,0.00
2018-08-03T03:04:01.128Z,0.00
2018-08-03T03:05:01.083Z,0.00
2018-08-03T03:06:01.082Z,0.00
2018-08-03T03:07:00.993Z,0.00
2018-08-03T03:08:00.951Z,0.00
2018-08-03T03:09:00.906Z,0.00
2018-08-03T03:10:00.867Z,0.00
2018-08-03T03:11:00.848Z,0.00
2018-08-03T03:12:00.774Z,0.00
2018-08-03T03:13:00.733Z,0.00
2018-08-03T03:14:00.689Z,0.00
2018-08-03T03:15:00.643Z,0.00
2018-08-03T03:16:00.632Z,0.00
2018-08-03T03:17:00.556Z,0.00
2018-08-03T03:18:00.510Z,0.00
2018-08-03T03:19:00.468Z,0.00
2018-08-03T03:20:00.456Z,0.00
2018-08-03T03:21:00.376Z,0.00
2018-08-03T03:22:00.335Z,0.00
2018-08-03T03:23:00.289Z,4.00
2018-08-03T03:24:00.280Z,0.00
2018-08-03T03:25:00.236Z,0.00
2018-08-03T03:26:00.160Z,4.00
2018-08-03T03:27:00.115Z,4.00
2018-08-03T03:28:00.070Z,4.00
2018-08-03T03:29:00.024Z,8.00
2018-08-03T03:30:00.026Z,4.00
2018-08-03T03:30:59.936Z,4.00
2018-08-03T03:31:59.937Z,4.00
2018-08-03T03:32:59.846Z,8.00
2018-08-03T03:33:59.810Z,12.00
2018-08-03T03:34:59.766Z,12.00
2018-08-03T03:35:59.719Z,12.00
2018-08-03T03:36:59.711Z,16.00
2018-08-03T03:37:59.630Z,16.00
2018-08-03T03:38:59.582Z,16.00
2018-08-03T03:39:59.541Z,20.00
2018-08-03T03:40:59.493Z,24.00
2018-08-03T03:41:59.498Z,28.00
2018-08-03T03:42:59.413Z,32.00
2018-08-03T03:43:59.365Z,32.00
2018-08-03T03:44:59.318Z,36.00
2018-08-03T03:45:59.274Z,40.00
2018-08-03T03:46:59.261Z,48.00
2018-08-03T03:47:59.187Z,48.00
2018-08-03T03:48:59.140Z,56.00
2018-08-03T03:49:59.097Z,60.00
2018-08-03T03:50:59.095Z,64.00
2018-08-03T03:51:59.012Z,68.00
2018-08-03T03:52:58.966Z,72.00
2018-08-03T03:53:58.953Z,80.00
2018-08-03T03:54:58.881Z,84.00
2018-08-03T03:55:58.838Z,96.00
2018-08-03T03:56:58.867Z,100.00
2018-08-03T03:57:58.743Z,108.00
2018-08-03T03:58:58.697Z,116.00
2018-08-03T03:59:58.686Z,128.00
2018-08-03T04:00:58.610Z,132.00
2018-08-03T04:01:58.568Z,144.00
2018-08-03T04:02:58.524Z,152.00
2018-08-03T04:03:58.524Z,164.00
2018-08-03T04:04:58.435Z,172.00
2018-08-03T04:05:58.390Z,184.00
2018-08-03T04:06:58.387Z,192.00
2018-08-03T04:07:58.299Z,204.00
2018-08-03T04:08:58.258Z,216.00
2018-08-03T04:09:58.212Z,232.00
2018-08-03T04:10:58.243Z,244.00
2018-08-03T04:11:58.156Z,260.00
2018-08-03T04:12:58.083Z,268.00
2018-08-03T04:13:58.072Z,288.00
2018-08-03T04:14:57.990Z,300.00
2018-08-03T04:15:57.977Z,312.00
2018-08-03T04:16:57.900Z,328.00
2018-08-03T04:17:57.856Z,344.00
2018-08-03T04:18:57.813Z,360.00
2018-08-03T04:19:57.768Z,376.00
2018-08-03T04:20:57.766Z,396.00
2018-08-03T04:21:57.680Z,412.00
2018-08-03T04:22:57.635Z,428.00
2018-08-03T04:23:57.590Z,448.00
2018-08-03T04:24:57.548Z,464.00
2018-08-03T04:25:57.534Z,484.00
2018-08-03T04:26:57.459Z,500.00
2018-08-03T04:27:57.412Z,520.00
2018-08-03T04:28:57.404Z,536.00
2018-08-03T04:29:57.323Z,556.00
2018-08-03T04:30:57.313Z,572.00
2018-08-03T04:31:57.234Z,592.00
2018-08-03T04:32:57.188Z,608.00
2018-08-03T04:33:57.145Z,632.00
2018-08-03T04:34:57.142Z,644.00
2018-08-03T04:35:57.055Z,664.00
2018-08-03T04:36:57.011Z,688.00
2018-08-03T04:37:57.010Z,704.00
2018-08-03T04:38:56.934Z,724.00
2018-08-03T04:39:56.878Z,744.00
2018-08-03T04:40:56.831Z,760.00
2018-08-03T04:41:56.790Z,780.00
2018-08-03T04:42:56.786Z,796.00
2018-08-03T04:43:56.702Z,816.00
2018-08-03T04:44:56.659Z,832.00
2018-08-03T04:45:56.613Z,852.00
2018-08-03T04:46:56.569Z,868.00
2018-08-03T04:47:56.558Z,892.00
2018-08-03T04:48:56.479Z,908.00
2018-08-03T04:49:56.439Z,928.00
2018-08-03T04:50:56.391Z,944.00
2018-08-03T04:51:56.348Z,964.00
2018-08-03T04:52:56.332Z,984.00
2018-08-03T04:53:56.255Z,1004.00
2018-08-03T04:54:56.215Z,1024.00
2018-08-03T04:55:56.177Z,1040.00
2018-08-03T04:56:56.124Z,1060.00
2018-08-03T04:57:56.113Z,1080.00
2018-08-03T04:58:56.064Z,1096.00
2018-08-03T04:59:56.004Z,1116.00
2018-08-03T05:00:55.948Z,1140.00
2018-08-03T05:01:55.904Z,1160.00
2018-08-03T05:02:55.893Z,1176.00
2018-08-03T05:03:55.849Z,1196.00
2018-08-03T05:04:55.774Z,1216.00
2018-08-03T05:05:55.728Z,1232.00
2018-08-03T05:06:55.681Z,1248.00
2018-08-03T05:07:55.640Z,1272.00
2018-08-03T05:08:55.625Z,1292.00
2018-08-03T05:09:55.548Z,1308.00
2018-08-03T05:10:55.505Z,1328.00
2018-08-03T05:11:55.461Z,1344.00
2018-08-03T05:12:55.456Z,1364.00
2018-08-03T05:13:55.407Z,1384.00
2018-08-03T05:14:55.329Z,1400.00
2018-08-03T05:15:55.291Z,1420.00
2018-08-03T05:16:55.240Z,1440.00
2018-08-03T05:17:55.203Z,1452.00
2018-08-03T05:18:55.192Z,1472.00
2018-08-03T05:19:55.110Z,1492.00
2018-08-03T05:20:55.063Z,1508.00
2018-08-03T05:21:55.021Z,1524.00
2018-08-03T05:22:55.008Z,1544.00
2018-08-03T05:23:54.932Z,1564.00
2018-08-03T05:24:54.887Z,1584.00
2018-08-03T05:25:54.844Z,1604.00
2018-08-03T05:26:54.799Z,1620.00
2018-08-03T05:27:54.786Z,1644.00
2018-08-03T05:28:54.708Z,1664.00
2018-08-03T05:29:54.669Z,1680.00
2018-08-03T05:30:54.634Z,1700.00
2018-08-03T05:31:54.579Z,1716.00
2018-08-03T05:32:54.579Z,1736.00
2018-08-03T05:33:54.494Z,1756.00
2018-08-03T05:34:54.448Z,1776.00
2018-08-03T05:35:54.453Z,1796.00
2018-08-03T05:36:54.358Z,1816.00
2018-08-03T05:37:54.360Z,1836.00
2018-08-03T05:38:54.274Z,1856.00
2018-08-03T05:39:54.230Z,1876.00
2018-08-03T05:40:54.186Z,1892.00
2018-08-03T05:41:54.143Z,1908.00
2018-08-03T05:42:54.132Z,1920.00
2018-08-03T05:43:54.085Z,1932.00
2018-08-03T05:44:54.007Z,1952.00
2018-08-03T05:45:53.970Z,1960.00
2018-08-03T05:46:53.923Z,1972.00
2018-08-03T05:47:53.876Z,1992.00
2018-08-03T05:48:53.864Z,2004.00
2018-08-03T05:49:53.834Z,2016.00
2018-08-03T05:50:53.745Z,2028.00
2018-08-03T05:51:53.702Z,2040.00
2018-08-03T05:52:53.659Z,2056.00
2018-08-03T05:53:53.619Z,2064.00
2018-08-03T05:54:53.605Z,2080.00
2018-08-03T05:55:53.530Z,2096.00
2018-08-03T05:56:53.485Z,2104.00
2018-08-03T05:57:53.452Z,2124.00
2018-08-03T05:58:53.430Z,2136.00
2018-08-03T05:59:53.356Z,2152.00
2018-08-03T06:00:53.313Z,2196.00
2018-08-03T06:01:53.266Z,2204.00
2018-08-03T06:02:53.255Z,2196.00
2018-08-03T06:03:53.200Z,2208.00
2018-08-03T06:04:53.137Z,2228.00
2018-08-03T06:05:53.092Z,2244.00
2018-08-03T06:06:53.080Z,2264.00
2018-08-03T06:07:53.020Z,2280.00
2018-08-03T06:08:52.965Z,2296.00
2018-08-03T06:09:52.974Z,2312.00
2018-08-03T06:10:52.874Z,2332.00
2018-08-03T06:11:52.832Z,2348.00
2018-08-03T06:12:52.787Z,2368.00
2018-08-03T06:13:52.786Z,2384.00
2018-08-03T06:14:52.715Z,2404.00
2018-08-03T06:15:52.662Z,2424.00
2018-08-03T06:16:52.616Z,2444.00
2018-08-03T06:17:52.573Z,2464.00
2018-08-03T06:18:52.561Z,2480.00
2018-08-03T06:19:52.488Z,2504.00
2018-08-03T06:20:52.475Z,2520.00
2018-08-03T06:21:52.400Z,2540.00
2018-08-03T06:22:52.354Z,2560.00
2018-08-03T06:23:52.314Z,2580.00
2018-08-03T06:24:52.299Z,2600.00
2018-08-03T06:25:52.226Z,2620.00
2018-08-03T06:26:52.186Z,2640.00
2018-08-03T06:27:52.144Z,2660.00
2018-08-03T06:28:52.129Z,2680.00
2018-08-03T06:29:52.055Z,2700.00
2018-08-03T06:30:52.014Z,2724.00
2018-08-03T06:31:51.990Z,2744.00
2018-08-03T06:32:51.927Z,2756.00
2018-08-03T06:33:51.915Z,2776.00
2018-08-03T06:34:51.840Z,2796.00
2018-08-03T06:35:51.795Z,2812.00
2018-08-03T06:36:51.753Z,2836.00
2018-08-03T06:37:51.741Z,2844.00
2018-08-03T06:38:51.670Z,2864.00
2018-08-03T06:39:51.628Z,2880.00
2018-08-03T06:40:51.610Z,2896.00
2018-08-03T06:41:51.540Z,2916.00
2018-08-03T06:42:51.497Z,2928.00
2018-08-03T06:43:51.452Z,2944.00
2018-08-03T06:44:51.410Z,2960.00
2018-08-03T06:45:51.400Z,2976.00
2018-08-03T06:46:51.362Z,2988.00
2018-08-03T06:47:51.288Z,3008.00
2018-08-03T06:48:51.240Z,3020.00
2018-08-03T06:49:51.200Z,3036.00
2018-08-03T06:50:51.160Z,3048.00
2018-08-03T06:51:51.143Z,3064.00
2018-08-03T06:52:51.067Z,3080.00
2018-08-03T06:53:51.089Z,3096.00
2018-08-03T06:54:50.984Z,3116.00
2018-08-03T06:55:50.940Z,3132.00
2018-08-03T06:56:50.956Z,3156.00
2018-08-03T06:57:50.856Z,3168.00
2018-08-03T06:58:50.861Z,3188.00
2018-08-03T06:59:50.771Z,3200.00
2018-08-03T07:00:50.725Z,3220.00
2018-08-03T07:01:50.741Z,3236.00
2018-08-03T07:02:50.748Z,3260.00
2018-08-03T07:03:50.611Z,3276.00
2018-08-03T07:04:50.561Z,3296.00
2018-08-03T07:05:50.518Z,3316.00
2018-08-03T07:06:50.508Z,3332.00
2018-08-03T07:07:50.437Z,3356.00
2018-08-03T07:08:50.421Z,3376.00
2018-08-03T07:09:50.346Z,3392.00
2018-08-03T07:10:50.305Z,3408.00
2018-08-03T07:11:50.265Z,3424.00
2018-08-03T07:12:50.220Z,3444.00
2018-08-03T07:13:50.209Z,3452.00
2018-08-03T07:14:50.173Z,3468.00
2018-08-03T07:15:50.096Z,3484.00
2018-08-03T07:16:50.089Z,3500.00
2018-08-03T07:17:50.009Z,3516.00
2018-08-03T07:18:50.006Z,3528.00
2018-08-03T07:19:50.001Z,3544.00
2018-08-03T07:20:49.884Z,3560.00
2018-08-03T07:21:49.841Z,3572.00
2018-08-03T07:22:49.800Z,3588.00
2018-08-03T07:23:49.799Z,3604.00
2018-08-03T07:24:49.713Z,3616.00
2018-08-03T07:25:49.692Z,3632.00
2018-08-03T07:26:49.631Z,3644.00
2018-08-03T07:27:49.591Z,3652.00
2018-08-03T07:28:49.578Z,3664.00
2018-08-03T07:29:49.544Z,3680.00
2018-08-03T07:30:49.462Z,3688.00
2018-08-03T07:31:49.422Z,3716.00
2018-08-03T07:32:49.382Z,3728.00
2018-08-03T07:33:49.343Z,3740.00
2018-08-03T07:34:49.337Z,3752.00
2018-08-03T07:35:49.256Z,3768.00
2018-08-03T07:36:49.253Z,3772.00
2018-08-03T07:37:49.172Z,3784.00
2018-08-03T07:38:49.129Z,3796.00
2018-08-03T07:39:49.126Z,3816.00
2018-08-03T07:40:49.047Z,3836.00
2018-08-03T07:41:49.008Z,3844.00
2018-08-03T07:42:48.968Z,3856.00
2018-08-03T07:43:48.919Z,3880.00
2018-08-03T07:44:48.910Z,3896.00
2018-08-03T07:45:48.871Z,3916.00
2018-08-03T07:46:48.798Z,3928.00
2018-08-03T07:47:48.755Z,3952.00
2018-08-03T07:48:48.713Z,3952.00
2018-08-03T07:49:48.674Z,3984.00
2018-08-03T07:50:48.666Z,3996.00
2018-08-03T07:51:48.590Z,4024.00
2018-08-03T07:52:48.548Z,4040.00
2018-08-03T07:53:48.513Z,4056.00
2018-08-03T07:54:48.469Z,4088.00
2018-08-03T07:55:48.459Z,4120.00
2018-08-03T07:56:48.389Z,4136.00
2018-08-03T07:57:48.377Z,4152.00
2018-08-03T07:58:48.305Z,4176.00
2018-08-03T07:59:48.264Z,4204.00
2018-08-03T08:00:48.220Z,4240.00
2018-08-03T08:01:48.179Z,4276.00
2018-08-03T08:02:48.178Z,4300.00
2018-08-03T08:03:48.099Z,4328.00
2018-08-03T08:04:48.055Z,4348.00
2018-08-03T08:05:48.012Z,4368.00
2018-08-03T08:06:47.975Z,4396.00
2018-08-03T08:07:47.974Z,4436.00
2018-08-03T08:08:47.894Z,4484.00
2018-08-03T08:09:47.943Z,4524.00
2018-08-03T08:10:47.815Z,4572.00
2018-08-03T08:11:47.773Z,4640.00
2018-08-03T08:12:47.763Z,4684.00
2018-08-03T08:13:47.692Z,4720.00
2018-08-03T08:14:47.648Z,4764.00
2018-08-03T08:15:47.649Z,4824.00
2018-08-03T08:16:47.616Z,4864.00
2018-08-03T08:17:47.527Z,4904.00
2018-08-03T08:18:47.488Z,4924.00
2018-08-03T08:19:47.455Z,4952.00
2018-08-03T08:20:47.440Z,5004.00
2018-08-03T08:21:47.366Z,5048.00
2018-08-03T08:22:47.324Z,5132.00
2018-08-03T08:23:47.286Z,5252.00
2018-08-03T08:24:47.246Z,5376.00
2018-08-03T08:25:47.236Z,5424.00
2018-08-03T08:26:47.165Z,5424.00
2018-08-03T08:27:47.127Z,5436.00
2018-08-03T08:28:47.126Z,5460.00
2018-08-03T08:29:47.044Z,5540.00
2018-08-03T08:30:47.005Z,5576.00
2018-08-03T08:31:46.970Z,5568.00
2018-08-03T08:32:46.926Z,5580.00
2018-08-03T08:33:46.938Z,5604.00
2018-08-03T08:34:46.851Z,5684.00
2018-08-03T08:35:46.809Z,5772.00
2018-08-03T08:36:46.772Z,5996.00
2018-08-03T08:37:46.731Z,6048.00
2018-08-03T08:38:46.725Z,6092.00
2018-08-03T08:39:46.650Z,6068.00
2018-08-03T08:40:46.614Z,6080.00
2018-08-03T08:41:46.578Z,6216.00
2018-08-03T08:42:46.541Z,6208.00
2018-08-03T08:43:46.571Z,6224.00
2018-08-03T08:44:46.463Z,6476.00
2018-08-03T08:45:46.421Z,6608.00
2018-08-03T08:46:46.380Z,6664.00
2018-08-03T08:47:46.341Z,6656.00
2018-08-03T08:48:46.345Z,6728.00
2018-08-03T08:49:46.264Z,6860.00
2018-08-03T08:50:46.227Z,6916.00
2018-08-03T08:51:46.188Z,6976.00
2018-08-03T08:52:46.152Z,6892.00
2018-08-03T08:53:46.154Z,8484.00
2018-08-03T08:54:46.102Z,9256.00
2018-08-03T08:55:46.041Z,7524.00
2018-08-03T08:56:45.999Z,6884.00
2018-08-03T08:57:45.971Z,6852.00
2018-08-03T08:58:45.960Z,6944.00
2018-08-03T08:59:45.887Z,6996.00
2018-08-03T09:00:45.854Z,6668.00
2018-08-03T09:01:45.815Z,6376.00
2018-08-03T09:02:45.775Z,6276.00
2018-08-03T09:03:45.779Z,6252.00
2018-08-03T09:04:45.707Z,6288.00
2018-08-03T09:05:45.666Z,6132.00
2018-08-03T09:06:45.657Z,5844.00
2018-08-03T09:07:45.593Z,5636.00
2018-08-03T09:08:45.584Z,5584.00
2018-08-03T09:09:45.517Z,5556.00
2018-08-03T09:10:45.488Z,5628.00
2018-08-03T09:11:45.452Z,5592.00
2018-08-03T09:12:45.489Z,5608.00
2018-08-03T09:13:45.413Z,5660.00
2018-08-03T09:14:45.339Z,5752.00
2018-08-03T09:15:45.299Z,5800.00
2018-08-03T09:16:45.262Z,5812.00
2018-08-03T09:17:45.228Z,5840.00
2018-08-03T09:18:45.283Z,5924.00
2018-08-03T09:19:45.177Z,5972.00
2018-08-03T09:20:45.118Z,5976.00
2018-08-03T09:21:45.083Z,6072.00
2018-08-03T09:22:45.049Z,5960.00
2018-08-03T09:23:45.047Z,6024.00
2018-08-03T09:24:45.049Z,5932.00
2018-08-03T09:25:44.940Z,5956.00
2018-08-03T09:26:44.938Z,5852.00
2018-08-03T09:27:44.870Z,5804.00
2018-08-03T09:28:44.833Z,5740.00
2018-08-03T09:29:44.800Z,5716.00
2018-08-03T09:30:44.762Z,5740.00
2018-08-03T09:31:44.765Z,5788.00
2018-08-03T09:32:44.695Z,5868.00
2018-08-03T09:33:44.656Z,6028.00
2018-08-03T09:34:44.623Z,6144.00
2018-08-03T09:35:44.590Z,6136.00
2018-08-03T09:36:44.590Z,6092.00
2018-08-03T09:37:44.522Z,6112.00
2018-08-03T09:38:44.481Z,6136.00
2018-08-03T09:39:44.452Z,6072.00
2018-08-03T09:40:44.409Z,5924.00
2018-08-03T09:41:44.413Z,5936.00
2018-08-03T09:42:44.342Z,6000.00
2018-08-03T09:43:44.310Z,6088.00
2018-08-03T09:44:44.269Z,6156.00
2018-08-03T09:45:44.234Z,6252.00
2018-08-03T09:46:44.231Z,6308.00
2018-08-03T09:47:44.199Z,6332.00
2018-08-03T09:48:44.132Z,6280.00
2018-08-03T09:49:44.098Z,6312.00
2018-08-03T09:50:44.062Z,6360.00
2018-08-03T09:51:44.034Z,6308.00
2018-08-03T09:52:44.026Z,6248.00
2018-08-03T09:53:44.483Z,6208.00
2018-08-03T09:54:43.926Z,6228.00
2018-08-03T09:55:43.896Z,6168.00
2018-08-03T09:56:43.857Z,6048.00
2018-08-03T09:57:43.852Z,6012.00
2018-08-03T09:58:43.789Z,5976.00
2018-08-03T09:59:43.755Z,5788.00
2018-08-03T10:00:43.775Z,5788.00
2018-08-03T10:01:43.742Z,5672.00
2018-08-03T10:02:43.687Z,5440.00
2018-08-03T10:03:43.623Z,4700.00
2018-08-03T10:04:43.585Z,5848.00
2018-08-03T10:05:43.598Z,5804.00
2018-08-03T10:06:43.518Z,3600.00
2018-08-03T10:07:43.490Z,3408.00
2018-08-03T10:08:43.452Z,3288.00
2018-08-03T10:09:43.418Z,3228.00
2018-08-03T10:10:43.414Z,3264.00
2018-08-03T10:11:43.349Z,3280.00
2018-08-03T10:12:43.338Z,3404.00
2018-08-03T10:13:43.285Z,3516.00
2018-08-03T10:14:43.279Z,3728.00
2018-08-03T10:15:43.214Z,3868.00
2018-08-03T10:16:43.178Z,3968.00
2018-08-03T10:17:43.187Z,4096.00
2018-08-03T10:18:43.118Z,4276.00
2018-08-03T10:19:43.108Z,5972.00
2018-08-03T10:20:43.047Z,5664.00
2018-08-03T10:21:43.012Z,5704.00
2018-08-03T10:22:42.973Z,5448.00
2018-08-03T10:23:42.938Z,3620.00
2018-08-03T10:24:42.941Z,3472.00
2018-08-03T10:25:42.868Z,3412.00
2018-08-03T10:26:42.836Z,3416.00
2018-08-03T10:27:43.656Z,3484.00
2018-08-03T10:28:42.764Z,3492.00
2018-08-03T10:29:42.815Z,3428.00
2018-08-03T10:30:42.729Z,3424.00
2018-08-03T10:31:42.663Z,3500.00
2018-08-03T10:32:42.625Z,3588.00
2018-08-03T10:33:42.592Z,3652.00
2018-08-03T10:34:42.557Z,3684.00
2018-08-03T10:35:42.552Z,3704.00
2018-08-03T10:36:42.486Z,3792.00
2018-08-03T10:37:42.450Z,4988.00
2018-08-03T10:38:42.418Z,3764.00
2018-08-03T10:39:42.382Z,3628.00
2018-08-03T10:40:42.380Z,3964.00
2018-08-03T10:41:42.321Z,3532.00
2018-08-03T10:42:42.287Z,3512.00
2018-08-03T10:43:42.242Z,3468.00
2018-08-03T10:44:42.211Z,3528.00
2018-08-03T10:45:42.209Z,3476.00
2018-08-03T10:46:42.135Z,3460.00
2018-08-03T10:47:42.104Z,3440.00
2018-08-03T10:48:42.084Z,3496.00
2018-08-03T10:49:42.032Z,3520.00
2018-08-03T10:50:42.027Z,3588.00
2018-08-03T10:51:41.961Z,3564.00
2018-08-03T10:52:41.928Z,3648.00
2018-08-03T10:53:41.926Z,3596.00
2018-08-03T10:54:41.852Z,3492.00
2018-08-03T10:55:41.854Z,3464.00
2018-08-03T10:56:41.784Z,3472.00
2018-08-03T10:57:41.748Z,3460.00
2018-08-03T10:58:41.745Z,3504.00
2018-08-03T10:59:41.679Z,3592.00
2018-08-03T11:00:41.688Z,3624.00
2018-08-03T11:01:41.679Z,3664.00
2018-08-03T11:02:41.572Z,3620.00
2018-08-03T11:03:41.535Z,3564.00
2018-08-03T11:04:41.537Z,3576.00
2018-08-03T11:05:41.461Z,3608.00
2018-08-03T11:06:41.474Z,3724.00
2018-08-03T11:07:41.425Z,3716.00
2018-08-03T11:08:41.360Z,3696.00
2018-08-03T11:09:41.324Z,3640.00
2018-08-03T11:10:41.317Z,3556.00
2018-08-03T11:11:41.247Z,3524.00
2018-08-03T11:12:41.214Z,3544.00
2018-08-03T11:13:41.237Z,3600.00
2018-08-03T11:14:41.139Z,3844.00
2018-08-03T11:15:41.189Z,4152.00
2018-08-03T11:16:41.070Z,5548.00
2018-08-03T11:17:41.037Z,3824.00
2018-08-03T11:18:40.999Z,3936.00
2018-08-03T11:19:40.960Z,4220.00
2018-08-03T11:20:40.966Z,3888.00
2018-08-03T11:21:40.891Z,4168.00
2018-08-03T11:22:40.853Z,5588.00
2018-08-03T11:23:40.820Z,4072.00
2018-08-03T11:24:40.784Z,4136.00
2018-08-03T11:25:40.782Z,4396.00
2018-08-03T11:26:40.713Z,6112.00
2018-08-03T11:27:40.680Z,6092.00
2018-08-03T11:28:40.636Z,4448.00
2018-08-03T11:29:40.618Z,3828.00
2018-08-03T11:30:40.597Z,3652.00
2018-08-03T11:31:40.533Z,5528.00
2018-08-03T11:32:40.502Z,3624.00
2018-08-03T11:33:40.492Z,4088.00
2018-08-03T11:34:40.426Z,5804.00
2018-08-03T11:35:40.420Z,5676.00
2018-08-03T11:36:40.354Z,5692.00
2018-08-03T11:37:40.319Z,3512.00
2018-08-03T11:38:40.284Z,3488.00
2018-08-03T11:39:40.246Z,3504.00
2018-08-03T11:40:40.288Z,3488.00
2018-08-03T11:41:40.176Z,3488.00
2018-08-03T11:42:40.154Z,3460.00
2018-08-03T11:43:40.105Z,3512.00
2018-08-03T11:44:40.068Z,3504.00
2018-08-03T11:45:40.083Z,3504.00
2018-08-03T11:46:40.042Z,3480.00
2018-08-03T11:47:39.965Z,3408.00
2018-08-03T11:48:39.929Z,3352.00
2018-08-03T11:49:39.894Z,3328.00
2018-08-03T11:50:39.860Z,3256.00
2018-08-03T11:51:39.860Z,3220.00
2018-08-03T11:52:39.792Z,3292.00
2018-08-03T11:53:39.757Z,3552.00
2018-08-03T11:54:39.720Z,3436.00
2018-08-03T11:55:39.689Z,5332.00
2018-08-03T11:56:39.698Z,5540.00
2018-08-03T11:57:39.612Z,5504.00
2018-08-03T11:58:39.576Z,5472.00
2018-08-03T11:59:39.544Z,5396.00
2018-08-03T12:00:39.509Z,5344.00
2018-08-03T12:01:39.504Z,5300.00
2018-08-03T12:02:39.436Z,4980.00
2018-08-03T12:03:39.405Z,3488.00
2018-08-03T12:04:39.372Z,4408.00
2018-08-03T12:05:39.369Z,4420.00
2018-08-03T12:06:39.473Z,5412.00
2018-08-03T12:07:39.262Z,5548.00
2018-08-03T12:08:39.228Z,5616.00
2018-08-03T12:09:39.193Z,5680.00
2018-08-03T12:10:39.194Z,5720.00
2018-08-03T12:11:39.126Z,5688.00
2018-08-03T12:12:39.093Z,5668.00
2018-08-03T12:13:39.057Z,5640.00
2018-08-03T12:14:39.021Z,5636.00
2018-08-03T12:15:39.030Z,5608.00
2018-08-03T12:16:38.954Z,5560.00
2018-08-03T12:17:38.923Z,5496.00
2018-08-03T12:18:38.883Z,5500.00
2018-08-03T12:19:38.850Z,5476.00
2018-08-03T12:20:38.848Z,5444.00
2018-08-03T12:21:38.784Z,5428.00
2018-08-03T12:22:38.777Z,5400.00
2018-08-03T12:23:38.735Z,5380.00
2018-08-03T12:24:38.685Z,5376.00
2018-08-03T12:25:38.647Z,5356.00
2018-08-03T12:26:38.612Z,5308.00
2018-08-03T12:27:38.608Z,5272.00